createdAt,value
2022-12-27T00:01:10.618Z,1.57
2022-12-27T00:03:38.927Z,3.37
2022-12-27T00:06:08.539Z,1.83
2022-12-27T00:08:36.918Z,3.37
2022-12-27T00:11:08.923Z,2.60
2022-12-27T00:13:37.324Z,2.03
2022-12-27T00:16:08.290Z,2.17
2022-12-27T00:18:36.984Z,3.17
2022-12-27T00:21:06.135Z,3.30
2022-12-27T00:23:35.366Z,3.10
2022-12-27T00:26:03.994Z,2.63
2022-12-27T00:28:32.548Z,3.80
2022-12-27T00:31:01.675Z,3.53
2022-12-27T00:33:32.647Z,2.30
2022-12-27T00:36:01.829Z,1.83
2022-12-27T00:38:30.278Z,2.47
2022-12-27T00:40:58.664Z,2.73
2022-12-27T00:43:27.151Z,3.53
2022-12-27T00:45:55.672Z,2.90
2022-12-27T00:48:24.084Z,3.13
2022-12-27T00:50:58.659Z,2.10
2022-12-27T00:53:27.256Z,2.10
2022-12-27T00:55:55.889Z,2.13
2022-12-27T00:58:24.586Z,1.23
2022-12-27T01:00:52.939Z,2.07
2022-12-27T01:03:21.706Z,2.53
2022-12-27T01:05:50.168Z,1.50
2022-12-27T01:08:19.924Z,1.67
2022-12-27T01:10:48.276Z,1.57
2022-12-27T01:13:16.588Z,2.80
2022-12-27T01:15:45.199Z,1.80
2022-12-27T01:18:13.545Z,1.63
2022-12-27T01:20:41.852Z,1.77
2022-12-27T01:23:10.198Z,2.10
2022-12-27T01:25:39.949Z,2.60
2022-12-27T01:28:08.320Z,2.87
2022-12-27T01:30:36.708Z,1.20
2022-12-27T01:33:05.147Z,3.43
2022-12-27T01:35:33.497Z,2.67
2022-12-27T01:38:01.851Z,1.37
2022-12-27T01:40:30.225Z,3.27
2022-12-27T01:42:58.716Z,4.53
2022-12-27T01:45:29.270Z,1.73
2022-12-27T01:48:01.060Z,2.83
2022-12-27T01:50:32.715Z,3.10
2022-12-27T01:53:04.332Z,2.30
2022-12-27T01:55:34.959Z,2.73
2022-12-27T01:58:05.415Z,2.27
2022-12-27T02:00:35.168Z,1.97
2022-12-27T02:03:04.328Z,2.90
2022-12-27T02:05:32.758Z,2.57
2022-12-27T02:08:07.214Z,3.60
2022-12-27T02:10:35.947Z,2.10
2022-12-27T02:13:06.511Z,2.53
2022-12-27T02:15:36.282Z,2.83
2022-12-27T02:18:04.646Z,1.57
2022-12-27T02:20:37.268Z,1.73
2022-12-27T02:23:44.144Z,1.83
2022-12-27T02:26:27.806Z,2.50
2022-12-27T02:29:08.952Z,2.27
2022-12-27T02:31:41.069Z,3.23
2022-12-27T02:34:12.574Z,2.10
2022-12-27T02:36:42.011Z,1.30
2022-12-27T02:39:10.986Z,3.03
2022-12-27T02:41:57.297Z,1.80
2022-12-27T02:44:44.787Z,2.33
2022-12-27T02:47:36.377Z,1.97
2022-12-27T02:50:22.728Z,2.27
2022-12-27T02:53:08.277Z,3.30
2022-12-27T02:56:04.781Z,3.57
2022-12-27T02:58:36.423Z,2.07
2022-12-27T03:01:29.613Z,3.93
2022-12-27T03:04:03.850Z,1.90
2022-12-27T03:06:43.595Z,2.93
2022-12-27T03:09:43.945Z,3.50
2022-12-27T03:12:34.663Z,1.90
2022-12-27T03:15:28.999Z,2.57
2022-12-27T03:18:05.767Z,1.60
2022-12-27T03:20:52.088Z,3.37
2022-12-27T03:23:38.493Z,3.67
2022-12-27T03:26:08.019Z,2.43
2022-12-27T03:28:54.698Z,2.30
2022-12-27T03:31:43.098Z,2.87
2022-12-27T03:34:32.977Z,2.13
2022-12-27T03:37:20.121Z,2.03
2022-12-27T03:39:50.950Z,3.93
2022-12-27T03:42:40.232Z,1.43
2022-12-27T03:45:09.201Z,1.77
2022-12-27T03:47:38.487Z,2.90
2022-12-27T03:50:10.517Z,3.53
2022-12-27T03:52:44.625Z,2.20
2022-12-27T03:55:13.407Z,1.93
2022-12-27T03:57:42.908Z,1.27
2022-12-27T04:00:11.987Z,2.67
2022-12-27T04:02:41.145Z,2.60
2022-12-27T04:05:11.303Z,4.03
2022-12-27T04:07:39.635Z,1.53
2022-12-27T04:10:25.883Z,2.70
2022-12-27T04:13:11.799Z,1.63
2022-12-27T04:15:57.709Z,3.43
2022-12-27T04:18:43.495Z,2.63
2022-12-27T04:21:30.882Z,2.00
2022-12-27T04:24:16.770Z,3.60
2022-12-27T04:27:02.589Z,3.00
2022-12-27T04:29:48.353Z,2.83
2022-12-27T04:32:33.967Z,2.27
2022-12-27T04:35:02.304Z,2.93
2022-12-27T04:37:32.008Z,3.10
2022-12-27T04:40:14.281Z,2.80
2022-12-27T04:43:01.113Z,2.40
2022-12-27T04:45:47.255Z,2.07
2022-12-27T04:48:34.075Z,2.20
2022-12-27T04:51:20.286Z,1.40
2022-12-27T04:54:09.609Z,2.50
2022-12-27T04:56:37.971Z,3.23
2022-12-27T04:59:24.017Z,2.27
2022-12-27T05:02:04.549Z,1.87
2022-12-27T05:04:33.679Z,3.70
2022-12-27T05:07:22.745Z,2.07
2022-12-27T05:10:10.146Z,2.40
2022-12-27T05:12:55.995Z,2.10
2022-12-27T05:15:24.361Z,3.30
2022-12-27T05:17:52.623Z,2.67
2022-12-27T05:20:21.024Z,1.63
2022-12-27T05:23:07.115Z,3.00
2022-12-27T05:25:38.118Z,3.60
2022-12-27T05:28:07.633Z,2.77
2022-12-27T05:30:36.392Z,2.00
2022-12-27T05:33:05.239Z,1.70
2022-12-27T05:35:34.427Z,1.80
2022-12-27T05:38:03.094Z,2.23
2022-12-27T05:40:31.494Z,2.30
2022-12-27T05:43:01.941Z,2.13
2022-12-27T05:45:30.494Z,2.67
2022-12-27T05:48:00.178Z,1.67
2022-12-27T05:50:28.959Z,2.47
2022-12-27T05:52:57.560Z,1.90
2022-12-27T05:55:25.898Z,3.43
2022-12-27T05:57:54.355Z,1.67
2022-12-27T06:00:24.288Z,1.43
2022-12-27T06:02:52.746Z,1.67
2022-12-27T06:05:21.204Z,2.50
2022-12-27T06:07:49.546Z,2.67
2022-12-27T06:10:17.973Z,1.70
2022-12-27T06:12:46.362Z,1.57
2022-12-27T06:15:14.704Z,3.90
2022-12-27T06:17:44.498Z,1.13
2022-12-27T06:20:12.875Z,1.63
2022-12-27T06:22:41.203Z,1.33
2022-12-27T06:25:14.124Z,1.77
2022-12-27T06:27:42.918Z,1.77
2022-12-27T06:30:12.359Z,2.67
2022-12-27T06:32:40.726Z,2.00
2022-12-27T06:35:11.245Z,3.23
2022-12-27T06:37:39.620Z,2.03
2022-12-27T06:40:08.696Z,2.50
2022-12-27T06:42:37.023Z,1.50
2022-12-27T06:45:06.433Z,1.73
2022-12-27T06:47:35.024Z,1.83
2022-12-27T06:50:03.373Z,1.43
2022-12-27T06:52:33.134Z,1.73
2022-12-27T06:55:01.530Z,2.23
2022-12-27T06:57:29.927Z,2.70
2022-12-27T06:59:58.382Z,2.53
2022-12-27T07:02:26.883Z,1.17
2022-12-27T07:04:55.323Z,1.67
2022-12-27T07:07:23.665Z,1.63
2022-12-27T07:09:53.406Z,1.50
2022-12-27T07:12:21.789Z,1.43
2022-12-27T07:14:50.140Z,2.90
2022-12-27T07:17:18.469Z,2.20
2022-12-27T07:19:48.209Z,1.90
2022-12-27T07:22:16.543Z,2.00
2022-12-27T07:24:45.024Z,3.20
2022-12-27T07:27:15.200Z,1.27
2022-12-27T07:29:45.696Z,2.70
2022-12-27T07:32:14.575Z,2.07
2022-12-27T07:34:42.946Z,1.67
2022-12-27T07:37:11.412Z,1.50
2022-12-27T07:39:40.772Z,1.57
2022-12-27T07:42:09.182Z,2.53
2022-12-27T07:44:38.898Z,1.00
2022-12-27T07:47:07.603Z,1.87
2022-12-27T07:49:36.121Z,1.53
2022-12-27T07:52:04.480Z,3.37
2022-12-27T07:54:32.941Z,3.90
2022-12-27T07:57:01.265Z,3.37
2022-12-27T07:59:29.663Z,1.57
2022-12-27T08:02:05.477Z,1.70
2022-12-27T08:04:35.306Z,1.20
2022-12-27T08:07:04.833Z,1.33
2022-12-27T08:09:34.124Z,2.53
2022-12-27T08:12:02.690Z,1.77
2022-12-27T08:14:31.216Z,1.13
2022-12-27T08:17:07.467Z,1.47
2022-12-27T08:19:35.933Z,1.10
2022-12-27T08:22:05.332Z,2.60
2022-12-27T08:24:33.974Z,0.70
2022-12-27T08:27:02.506Z,1.00
2022-12-27T08:29:31.046Z,1.10
2022-12-27T08:32:00.981Z,2.83
2022-12-27T08:34:29.537Z,1.43
2022-12-27T08:36:58.051Z,1.30
2022-12-27T08:39:26.539Z,1.00
2022-12-27T08:41:55.065Z,1.20
2022-12-27T08:44:23.573Z,1.20
2022-12-27T08:46:52.239Z,1.97
2022-12-27T08:49:22.524Z,1.10
2022-12-27T08:51:51.007Z,1.23
2022-12-27T08:54:19.421Z,2.30
2022-12-27T08:56:47.991Z,1.20
2022-12-27T08:59:16.371Z,2.43
2022-12-27T09:01:45.022Z,1.67
2022-12-27T09:04:13.673Z,1.67
2022-12-27T09:06:43.690Z,1.73
2022-12-27T09:09:12.149Z,1.80
2022-12-27T09:11:40.764Z,1.20
2022-12-27T09:14:09.194Z,1.53
2022-12-27T09:16:38.118Z,2.33
2022-12-27T09:19:06.911Z,1.30
2022-12-27T09:21:36.473Z,1.20
2022-12-27T09:24:07.575Z,1.47
2022-12-27T09:26:36.018Z,0.90
2022-12-27T09:29:04.441Z,2.10
2022-12-27T09:31:33.163Z,1.60
2022-12-27T09:34:01.724Z,1.13
2022-12-27T09:36:31.148Z,1.53
2022-12-27T09:39:00.425Z,1.60
2022-12-27T09:44:37.555Z,0.70
2022-12-27T09:47:08.751Z,1.07
2022-12-27T09:49:38.957Z,1.63
2022-12-27T09:52:09.605Z,1.53
2022-12-27T09:54:40.857Z,1.10
2022-12-27T09:57:20.498Z,1.10
2022-12-27T09:59:50.769Z,0.97
2022-12-27T10:02:21.979Z,1.17
2022-12-27T10:05:19.133Z,1.17
2022-12-27T10:07:47.907Z,1.60
2022-12-27T10:10:19.929Z,1.27
2022-12-27T10:13:02.242Z,1.27
2022-12-27T10:15:32.542Z,1.77
2022-12-27T10:18:09.057Z,1.13
2022-12-27T10:20:47.949Z,1.67
2022-12-27T10:23:18.888Z,0.80
2022-12-27T10:25:48.276Z,1.20
2022-12-27T10:28:19.486Z,1.57
2022-12-27T10:30:47.835Z,1.30
2022-12-27T10:33:21.424Z,1.30
2022-12-27T10:35:50.448Z,1.20
2022-12-27T10:38:19.106Z,2.20
2022-12-27T10:40:52.875Z,1.50
2022-12-27T10:43:25.538Z,1.93
2022-12-27T10:45:54.357Z,1.10
2022-12-27T10:48:23.763Z,1.63
2022-12-27T10:50:55.162Z,1.33
2022-12-27T10:53:41.617Z,1.30
2022-12-27T10:56:12.213Z,1.00
2022-12-27T10:58:44.586Z,2.53
2022-12-27T11:01:24.981Z,1.23
2022-12-27T11:03:53.905Z,1.97
2022-12-27T11:06:23.835Z,1.53
2022-12-27T11:08:53.124Z,2.23
2022-12-27T11:11:22.643Z,2.23
2022-12-27T11:13:52.549Z,1.50
2022-12-27T11:16:26.683Z,3.40
2022-12-27T11:18:56.077Z,2.57
2022-12-27T11:21:28.021Z,2.53
2022-12-27T11:23:58.557Z,3.83
2022-12-27T11:26:28.755Z,2.67
2022-12-27T11:29:01.133Z,1.90
2022-12-27T11:31:32.417Z,1.87
2022-12-27T11:34:01.652Z,3.00
2022-12-27T11:36:31.298Z,2.27
2022-12-27T11:39:00.635Z,2.07
2022-12-27T11:41:34.981Z,2.23
2022-12-27T11:44:07.877Z,1.90
2022-12-27T11:46:40.277Z,1.67
2022-12-27T11:49:11.209Z,2.03
2022-12-27T11:51:48.588Z,2.67
2022-12-27T11:54:32.756Z,2.10
2022-12-27T11:57:08.649Z,3.83
2022-12-27T11:59:46.553Z,2.80
2022-12-27T12:02:27.907Z,1.97
2022-12-27T12:05:04.576Z,3.63
2022-12-27T12:07:44.331Z,3.80
2022-12-27T12:10:18.550Z,3.10
2022-12-27T12:13:03.032Z,2.87
2022-12-27T12:15:55.358Z,2.63
2022-12-27T12:18:36.129Z,3.63
2022-12-27T12:21:17.644Z,3.37
2022-12-27T12:23:56.720Z,3.90
2022-12-27T12:26:25.748Z,2.17
2022-12-27T12:29:06.790Z,3.40
2022-12-27T12:31:51.281Z,1.40
2022-12-27T12:34:29.262Z,3.10
2022-12-27T12:37:05.216Z,3.33
2022-12-27T12:39:46.303Z,2.43
2022-12-27T12:42:22.409Z,2.60
2022-12-27T12:45:01.075Z,4.63
2022-12-27T12:47:41.041Z,3.50
2022-12-27T12:50:19.573Z,4.00
2022-12-27T12:52:55.389Z,2.50
2022-12-27T12:55:38.115Z,2.53
2022-12-27T12:58:16.275Z,1.97
2022-12-27T13:00:49.798Z,4.97
2022-12-27T13:03:36.355Z,3.10
2022-12-27T13:06:15.695Z,7.33
2022-12-27T13:08:46.468Z,4.23
2022-12-27T13:11:24.870Z,6.03
2022-12-27T13:14:03.984Z,4.57
2022-12-27T13:16:36.466Z,2.97
2022-12-27T13:19:15.097Z,4.00
2022-12-27T13:21:53.506Z,3.77
2022-12-27T13:24:29.789Z,2.13
2022-12-27T13:27:02.557Z,4.67
2022-12-27T13:29:43.428Z,4.83
2022-12-27T13:32:17.934Z,3.70
2022-12-27T13:34:53.131Z,2.70
2022-12-27T13:37:27.289Z,4.20
2022-12-27T13:40:07.580Z,4.57
2022-12-27T13:42:49.287Z,3.43
2022-12-27T13:45:23.814Z,2.83
2022-12-27T13:48:00.212Z,1.30
2022-12-27T13:50:46.889Z,3.40
2022-12-27T13:53:23.950Z,3.47
2022-12-27T13:55:57.461Z,3.03
2022-12-27T13:58:36.710Z,4.37
2022-12-27T14:01:11.952Z,1.93
2022-12-27T14:03:45.874Z,4.60
2022-12-27T14:06:19.550Z,3.00
2022-12-27T14:09:02.763Z,6.63
2022-12-27T14:11:41.006Z,2.23
2022-12-27T14:14:12.031Z,3.67
2022-12-27T14:16:48.770Z,3.70
2022-12-27T14:19:26.611Z,2.87
2022-12-27T14:22:17.687Z,2.50
2022-12-27T14:25:04.202Z,3.13
2022-12-27T14:27:50.359Z,4.50
2022-12-27T14:30:39.568Z,4.27
2022-12-27T14:33:31.282Z,5.50
2022-12-27T14:36:11.168Z,4.37
2022-12-27T14:38:55.805Z,5.30
2022-12-27T14:41:31.539Z,5.57
2022-12-27T14:44:12.091Z,4.33
2022-12-27T14:47:02.032Z,5.97
2022-12-27T14:49:49.304Z,4.57
2022-12-27T14:52:42.711Z,5.43
2022-12-27T14:55:27.380Z,5.10
2022-12-27T14:58:05.050Z,4.53
2022-12-27T15:00:49.679Z,4.57
2022-12-27T15:03:23.674Z,5.20
2022-12-27T15:06:04.058Z,5.30
2022-12-27T15:08:44.968Z,4.03
2022-12-27T15:11:21.099Z,4.73
2022-12-27T15:13:56.409Z,4.33
2022-12-27T15:16:29.568Z,3.33
2022-12-27T15:19:06.090Z,3.03
2022-12-27T15:21:45.483Z,2.43
2022-12-27T15:24:23.342Z,3.63
2022-12-27T15:26:53.524Z,3.30
2022-12-27T15:29:28.281Z,3.67
2022-12-27T15:32:02.409Z,4.23
2022-12-27T15:34:38.833Z,5.40
2022-12-27T15:37:07.863Z,5.17
2022-12-27T15:39:54.168Z,5.50
2022-12-27T15:42:49.607Z,5.50
2022-12-27T15:45:27.285Z,6.10
2022-12-27T15:48:09.426Z,6.03
2022-12-27T15:50:42.912Z,6.43
2022-12-27T15:53:21.023Z,8.40
2022-12-27T15:56:13.327Z,9.23
2022-12-27T15:58:41.941Z,8.60
2022-12-27T16:01:28.872Z,9.07
2022-12-27T16:03:59.578Z,10.50
2022-12-27T16:06:49.859Z,10.80
2022-12-27T16:09:33.950Z,10.60
2022-12-27T16:12:04.132Z,11.10
2022-12-27T16:14:33.691Z,11.50
2022-12-27T16:17:10.915Z,10.90
2022-12-27T16:19:57.697Z,12.53
2022-12-27T16:22:29.453Z,9.50
2022-12-27T16:24:58.180Z,7.90
2022-12-27T16:27:31.093Z,10.30
2022-12-27T16:29:59.892Z,11.47
2022-12-27T16:32:30.230Z,10.27
2022-12-27T16:35:14.380Z,13.17
2022-12-27T16:37:45.477Z,7.90
2022-12-27T16:40:29.344Z,11.37
2022-12-27T16:43:21.961Z,8.43
2022-12-27T16:45:52.291Z,10.43
2022-12-27T16:48:25.947Z,9.63
2022-12-27T16:51:05.422Z,12.67
2022-12-27T16:53:43.758Z,6.43
2022-12-27T16:56:16.730Z,11.23
2022-12-27T16:58:45.151Z,10.20
2022-12-27T17:01:32.307Z,10.20
2022-12-27T17:04:02.144Z,10.33
2022-12-27T17:06:49.589Z,8.33
2022-12-27T17:09:36.701Z,5.40
2022-12-27T17:12:08.200Z,9.97
2022-12-27T17:14:37.704Z,6.27
2022-12-27T17:17:10.424Z,9.37
2022-12-27T17:19:41.960Z,7.43
2022-12-27T17:22:14.889Z,6.50
2022-12-27T17:24:44.028Z,8.87
2022-12-27T17:27:16.618Z,7.30
2022-12-27T17:29:55.136Z,7.20
2022-12-27T17:32:29.270Z,9.33
2022-12-27T17:35:05.506Z,7.50
2022-12-27T17:37:38.068Z,7.93
2022-12-27T17:40:11.391Z,7.23
2022-12-27T17:43:04.579Z,8.47
2022-12-27T17:45:38.816Z,6.83
2022-12-27T17:48:14.660Z,7.77
2022-12-27T17:50:45.985Z,8.03
2022-12-27T17:53:34.810Z,8.23
2022-12-27T17:56:25.396Z,5.70
2022-12-27T17:58:59.624Z,7.37
2022-12-27T18:01:29.884Z,6.90
2022-12-27T18:03:58.308Z,6.33
2022-12-27T18:06:27.989Z,7.07
2022-12-27T18:08:57.488Z,4.47
2022-12-27T18:11:28.139Z,6.40
2022-12-27T18:13:59.028Z,6.50
2022-12-27T18:16:31.564Z,6.03
2022-12-27T18:19:01.740Z,6.83
2022-12-27T18:21:32.112Z,8.03
2022-12-27T18:24:00.769Z,7.13
2022-12-27T18:26:35.148Z,5.10
2022-12-27T18:29:03.639Z,5.70
2022-12-27T18:31:36.264Z,6.43
2022-12-27T18:34:07.979Z,5.60
2022-12-27T18:36:39.803Z,6.17
2022-12-27T18:39:09.425Z,6.90
2022-12-27T18:41:39.206Z,5.77
2022-12-27T18:44:11.866Z,4.70
2022-12-27T18:46:40.612Z,4.67
2022-12-27T18:49:09.066Z,3.53
2022-12-27T18:51:39.885Z,2.73
2022-12-27T18:54:22.487Z,5.07
2022-12-27T18:56:53.514Z,5.03
2022-12-27T18:59:26.051Z,4.90
2022-12-27T19:01:55.155Z,4.87
2022-12-27T19:04:25.536Z,5.70
2022-12-27T19:07:00.293Z,3.63
2022-12-27T19:09:30.752Z,4.80
2022-12-27T19:12:00.158Z,5.00
2022-12-27T19:14:33.203Z,3.87
2022-12-27T19:17:08.663Z,5.53
2022-12-27T19:19:39.497Z,6.50
2022-12-27T19:22:22.755Z,4.63
2022-12-27T19:24:59.006Z,4.80
2022-12-27T19:27:27.358Z,6.00
2022-12-27T19:29:55.741Z,5.40
2022-12-27T19:32:27.572Z,3.93
2022-12-27T19:34:58.265Z,3.40
2022-12-27T19:37:27.412Z,4.80
2022-12-27T19:39:57.429Z,4.00
2022-12-27T19:42:27.926Z,5.87
2022-12-27T19:44:56.349Z,4.37
2022-12-27T19:47:24.781Z,6.57
2022-12-27T19:49:53.142Z,3.53
2022-12-27T19:52:22.620Z,6.27
2022-12-27T19:54:51.685Z,5.43
2022-12-27T19:57:22.432Z,4.03
2022-12-27T19:59:51.181Z,5.47
2022-12-27T20:02:21.358Z,6.23
2022-12-27T20:04:49.958Z,3.17
2022-12-27T20:07:22.077Z,5.60
2022-12-27T20:09:50.511Z,6.63
2022-12-27T20:12:19.033Z,4.70
2022-12-27T20:14:48.833Z,4.67
2022-12-27T20:17:17.165Z,5.97
2022-12-27T20:19:45.657Z,5.00
2022-12-27T20:22:14.033Z,5.57
2022-12-27T20:24:42.395Z,5.57
2022-12-27T20:27:10.760Z,2.80
2022-12-27T20:29:39.220Z,4.53
2022-12-27T20:32:09.040Z,4.23
2022-12-27T20:34:37.467Z,3.40
2022-12-27T20:37:05.805Z,5.67
2022-12-27T20:39:34.696Z,5.40
2022-12-27T20:42:03.474Z,5.00
2022-12-27T20:44:32.351Z,4.03
2022-12-27T20:47:00.726Z,2.77
2022-12-27T20:49:30.467Z,4.23
2022-12-27T20:51:58.823Z,2.30
2022-12-27T20:54:27.206Z,4.63
2022-12-27T20:56:55.583Z,3.27
2022-12-27T20:59:23.967Z,5.27
2022-12-27T21:01:57.057Z,3.50
2022-12-27T21:04:26.762Z,5.17
2022-12-27T21:06:56.494Z,5.07
2022-12-27T21:09:24.901Z,5.67
2022-12-27T21:11:53.949Z,4.03
2022-12-27T21:14:22.452Z,4.87
2022-12-27T21:16:50.934Z,4.83
2022-12-27T21:19:22.052Z,4.53
2022-12-27T21:21:50.472Z,5.00
2022-12-27T21:24:20.287Z,5.40
2022-12-27T21:26:51.953Z,4.73
2022-12-27T21:29:24.458Z,5.43
2022-12-27T21:31:53.391Z,5.20
2022-12-27T21:34:22.262Z,4.40
2022-12-27T21:36:52.905Z,4.60
2022-12-27T21:39:22.655Z,4.40
2022-12-27T21:41:51.021Z,1.83
2022-12-27T21:44:21.177Z,4.70
2022-12-27T21:46:49.624Z,4.67
2022-12-27T21:49:18.016Z,3.90
2022-12-27T21:51:46.405Z,5.13
2022-12-27T21:54:16.253Z,3.63
2022-12-27T21:56:46.108Z,3.93
2022-12-27T21:59:14.540Z,3.37
2022-12-27T22:01:49.683Z,3.07
2022-12-27T22:04:19.504Z,4.60
2022-12-27T22:06:48.271Z,4.63
2022-12-27T22:09:16.833Z,3.37
2022-12-27T22:11:46.633Z,5.10
2022-12-27T22:14:15.155Z,5.33
2022-12-27T22:16:43.598Z,5.23
2022-12-27T22:19:12.823Z,5.33
2022-12-27T22:21:42.549Z,6.00
2022-12-27T22:24:15.463Z,4.87
2022-12-27T22:26:43.873Z,6.90
2022-12-27T22:29:14.087Z,5.10
2022-12-27T22:31:42.915Z,5.13
2022-12-27T22:34:11.330Z,6.13
2022-12-27T22:36:39.692Z,5.03
2022-12-27T22:39:08.204Z,5.73
2022-12-27T22:41:37.755Z,6.17
2022-12-27T22:44:07.259Z,5.90
2022-12-27T22:49:25.840Z,5.50
2022-12-27T22:51:54.766Z,6.33
2022-12-27T22:55:03.252Z,5.27
2022-12-27T22:57:11.417Z,7.63
2022-12-27T22:59:39.822Z,4.93
2022-12-27T23:02:09.620Z,7.17
2022-12-27T23:04:38.272Z,7.77
2022-12-27T23:07:06.712Z,6.07
2022-12-27T23:09:39.299Z,5.97
2022-12-27T23:12:11.108Z,7.00
2022-12-27T23:14:39.483Z,5.57
2022-12-27T23:17:09.213Z,8.10
2022-12-27T23:19:37.675Z,7.37
2022-12-27T23:22:06.032Z,6.33
2022-12-27T23:24:34.746Z,8.13
2022-12-27T23:27:03.351Z,6.23
2022-12-27T23:29:31.767Z,7.40
2022-12-27T23:32:00.233Z,6.97
2022-12-27T23:34:30.006Z,7.60
2022-12-27T23:36:58.542Z,8.80
2022-12-27T23:39:27.051Z,8.23
2022-12-27T23:41:55.708Z,7.10
2022-12-27T23:44:34.139Z,5.63
2022-12-27T23:47:03.649Z,7.90
2022-12-27T23:49:33.492Z,8.80
2022-12-27T23:52:01.844Z,7.93
2022-12-27T23:54:30.460Z,7.20
2022-12-27T23:57:19.843Z,8.33
2022-12-27T23:59:47.235Z,8.00
